sensor_id;sensor_type;location;lat;lon;timestamp;temperature;humidity
16074;DHT22;8141;52.664;5.074;2023-04-03T00:01:15;18.30;48.30
16074;DHT22;8141;52.664;5.074;2023-04-03T00:03:41;18.30;48.30
16074;DHT22;8141;52.664;5.074;2023-04-03T00:06:07;18.30;48.30
16074;DHT22;8141;52.664;5.074;2023-04-03T00:08:36;18.30;48.30
16074;DHT22;8141;52.664;5.074;2023-04-03T00:11:02;18.30;48.40
16074;DHT22;8141;52.664;5.074;2023-04-03T00:13:29;18.30;48.40
16074;DHT22;8141;52.664;5.074;2023-04-03T00:15:54;18.30;48.40
16074;DHT22;8141;52.664;5.074;2023-04-03T00:18:20;18.30;48.30
16074;DHT22;8141;52.664;5.074;2023-04-03T00:20:46;18.30;48.40
16074;DHT22;8141;52.664;5.074;2023-04-03T00:23:12;18.30;48.40
16074;DHT22;8141;52.664;5.074;2023-04-03T00:25:38;18.30;48.30
16074;DHT22;8141;52.664;5.074;2023-04-03T00:28:04;18.30;48.40
16074;DHT22;8141;52.664;5.074;2023-04-03T00:30:31;18.30;48.40
16074;DHT22;8141;52.664;5.074;2023-04-03T00:32:57;18.30;48.30
16074;DHT22;8141;52.664;5.074;2023-04-03T00:35:24;18.30;48.50
16074;DHT22;8141;52.664;5.074;2023-04-03T00:37:54;18.30;48.70
16074;DHT22;8141;52.664;5.074;2023-04-03T00:40:22;18.40;48.60
16074;DHT22;8141;52.664;5.074;2023-04-03T00:42:54;18.30;48.50
16074;DHT22;8141;52.664;5.074;2023-04-03T00:45:31;18.30;48.40
16074;DHT22;8141;52.664;5.074;2023-04-03T00:48:04;18.30;48.40
16074;DHT22;8141;52.664;5.074;2023-04-03T00:50:33;18.30;48.40
16074;DHT22;8141;52.664;5.074;2023-04-03T00:53:03;18.30;48.50
16074;DHT22;8141;52.664;5.074;2023-04-03T00:55:31;18.30;48.50
16074;DHT22;8141;52.664;5.074;2023-04-03T00:57:57;18.30;48.50
16074;DHT22;8141;52.664;5.074;2023-04-03T01:00:24;18.30;48.50
16074;DHT22;8141;52.664;5.074;2023-04-03T01:02:51;18.30;48.40
16074;DHT22;8141;52.664;5.074;2023-04-03T01:05:17;18.30;48.40
16074;DHT22;8141;52.664;5.074;2023-04-03T01:07:45;18.30;48.50
16074;DHT22;8141;52.664;5.074;2023-04-03T01:10:14;18.30;48.40
16074;DHT22;8141;52.664;5.074;2023-04-03T01:12:42;18.30;48.50
16074;DHT22;8141;52.664;5.074;2023-04-03T01:15:16;18.30;48.50
16074;DHT22;8141;52.664;5.074;2023-04-03T01:17:55;18.30;48.50
16074;DHT22;8141;52.664;5.074;2023-04-03T01:20:35;18.30;48.60
16074;DHT22;8141;52.664;5.074;2023-04-03T01:25:45;18.30;48.70
16074;DHT22;8141;52.664;5.074;2023-04-03T01:28:16;18.30;48.70
16074;DHT22;8141;52.664;5.074;2023-04-03T01:34:02;18.30;48.90
16074;DHT22;8141;52.664;5.074;2023-04-03T01:36:31;18.30;48.80
16074;DHT22;8141;52.664;5.074;2023-04-03T01:38:58;18.30;48.80
16074;DHT22;8141;52.664;5.074;2023-04-03T01:41:25;18.30;48.80
16074;DHT22;8141;52.664;5.074;2023-04-03T01:43:51;18.30;48.90
16074;DHT22;8141;52.664;5.074;2023-04-03T01:46:17;18.40;48.90
16074;DHT22;8141;52.664;5.074;2023-04-03T01:48:44;18.40;49.00
16074;DHT22;8141;52.664;5.074;2023-04-03T01:51:09;18.30;49.00
16074;DHT22;8141;52.664;5.074;2023-04-03T01:53:35;18.40;48.90
16074;DHT22;8141;52.664;5.074;2023-04-03T01:56:01;18.40;49.10
16074;DHT22;8141;52.664;5.074;2023-04-03T01:58:27;18.30;48.90
16074;DHT22;8141;52.664;5.074;2023-04-03T02:00:52;18.30;49.10
16074;DHT22;8141;52.664;5.074;2023-04-03T02:03:19;18.30;49.00
16074;DHT22;8141;52.664;5.074;2023-04-03T02:05:45;18.40;49.00
16074;DHT22;8141;52.664;5.074;2023-04-03T02:08:11;18.40;49.00
16074;DHT22;8141;52.664;5.074;2023-04-03T02:10:37;18.40;49.10
16074;DHT22;8141;52.664;5.074;2023-04-03T02:13:03;18.30;49.10
16074;DHT22;8141;52.664;5.074;2023-04-03T02:15:28;18.40;49.10
16074;DHT22;8141;52.664;5.074;2023-04-03T02:17:55;18.30;49.00
16074;DHT22;8141;52.664;5.074;2023-04-03T02:20:20;18.30;48.90
16074;DHT22;8141;52.664;5.074;2023-04-03T02:22:47;18.30;49.00
16074;DHT22;8141;52.664;5.074;2023-04-03T02:25:13;18.30;49.10
16074;DHT22;8141;52.664;5.074;2023-04-03T02:27:39;18.30;49.10
16074;DHT22;8141;52.664;5.074;2023-04-03T02:30:06;18.30;49.10
16074;DHT22;8141;52.664;5.074;2023-04-03T02:32:34;18.30;49.10
16074;DHT22;8141;52.664;5.074;2023-04-03T02:35:00;18.30;49.00
16074;DHT22;8141;52.664;5.074;2023-04-03T02:37:26;18.40;49.10
16074;DHT22;8141;52.664;5.074;2023-04-03T02:39:51;18.40;49.30
16074;DHT22;8141;52.664;5.074;2023-04-03T02:42:17;18.40;49.00
16074;DHT22;8141;52.664;5.074;2023-04-03T02:44:42;18.40;49.10
16074;DHT22;8141;52.664;5.074;2023-04-03T02:47:08;18.30;49.00
16074;DHT22;8141;52.664;5.074;2023-04-03T02:49:34;18.30;49.10
16074;DHT22;8141;52.664;5.074;2023-04-03T02:52:00;18.30;49.10
16074;DHT22;8141;52.664;5.074;2023-04-03T02:54:25;18.30;49.20
16074;DHT22;8141;52.664;5.074;2023-04-03T02:56:54;18.30;49.20
16074;DHT22;8141;52.664;5.074;2023-04-03T02:59:19;18.40;49.20
16074;DHT22;8141;52.664;5.074;2023-04-03T03:01:45;18.30;49.20
16074;DHT22;8141;52.664;5.074;2023-04-03T03:04:11;18.30;49.30
16074;DHT22;8141;52.664;5.074;2023-04-03T03:06:37;18.30;49.20
16074;DHT22;8141;52.664;5.074;2023-04-03T03:09:03;18.30;49.20
16074;DHT22;8141;52.664;5.074;2023-04-03T03:11:29;18.30;49.40
16074;DHT22;8141;52.664;5.074;2023-04-03T03:13:55;18.30;49.20
16074;DHT22;8141;52.664;5.074;2023-04-03T03:16:21;18.30;49.40
16074;DHT22;8141;52.664;5.074;2023-04-03T03:18:47;18.40;49.30
16074;DHT22;8141;52.664;5.074;2023-04-03T03:21:13;18.30;49.30
16074;DHT22;8141;52.664;5.074;2023-04-03T03:23:39;18.30;49.30
16074;DHT22;8141;52.664;5.074;2023-04-03T03:26:07;18.30;49.30
16074;DHT22;8141;52.664;5.074;2023-04-03T03:28:36;18.30;49.30
16074;DHT22;8141;52.664;5.074;2023-04-03T03:31:03;18.30;49.40
16074;DHT22;8141;52.664;5.074;2023-04-03T03:33:29;18.30;49.40
16074;DHT22;8141;52.664;5.074;2023-04-03T03:35:55;18.40;49.40
16074;DHT22;8141;52.664;5.074;2023-04-03T03:38:21;18.40;49.50
16074;DHT22;8141;52.664;5.074;2023-04-03T03:40:49;18.30;49.40
16074;DHT22;8141;52.664;5.074;2023-04-03T03:43:16;18.30;49.40
16074;DHT22;8141;52.664;5.074;2023-04-03T03:45:42;18.30;49.40
16074;DHT22;8141;52.664;5.074;2023-04-03T03:48:08;18.30;49.40
16074;DHT22;8141;52.664;5.074;2023-04-03T03:50:34;18.30;49.40
16074;DHT22;8141;52.664;5.074;2023-04-03T03:53:00;18.30;49.50
16074;DHT22;8141;52.664;5.074;2023-04-03T03:55:26;18.30;49.50
16074;DHT22;8141;52.664;5.074;2023-04-03T03:57:51;18.30;49.40
16074;DHT22;8141;52.664;5.074;2023-04-03T04:00:17;18.30;49.40
16074;DHT22;8141;52.664;5.074;2023-04-03T04:02:44;18.30;49.50
16074;DHT22;8141;52.664;5.074;2023-04-03T04:05:10;18.30;49.50
16074;DHT22;8141;52.664;5.074;2023-04-03T04:07:36;18.30;49.40
16074;DHT22;8141;52.664;5.074;2023-04-03T04:10:01;18.40;49.50
16074;DHT22;8141;52.664;5.074;2023-04-03T04:12:27;18.30;49.60
16074;DHT22;8141;52.664;5.074;2023-04-03T04:14:53;18.30;49.50
16074;DHT22;8141;52.664;5.074;2023-04-03T04:17:19;18.30;49.50
16074;DHT22;8141;52.664;5.074;2023-04-03T04:19:45;18.30;49.50
16074;DHT22;8141;52.664;5.074;2023-04-03T04:22:11;18.30;49.50
16074;DHT22;8141;52.664;5.074;2023-04-03T04:24:36;18.30;49.60
16074;DHT22;8141;52.664;5.074;2023-04-03T04:27:02;18.30;49.70
16074;DHT22;8141;52.664;5.074;2023-04-03T04:29:28;18.30;49.70
16074;DHT22;8141;52.664;5.074;2023-04-03T04:31:54;18.30;49.80
16074;DHT22;8141;52.664;5.074;2023-04-03T04:34:20;18.30;49.70
16074;DHT22;8141;52.664;5.074;2023-04-03T04:36:45;18.30;49.90
16074;DHT22;8141;52.664;5.074;2023-04-03T04:39:11;18.30;50.40
16074;DHT22;8141;52.664;5.074;2023-04-03T04:41:36;18.30;50.10
16074;DHT22;8141;52.664;5.074;2023-04-03T04:44:02;18.30;50.40
16074;DHT22;8141;52.664;5.074;2023-04-03T04:46:28;18.30;49.70
16074;DHT22;8141;52.664;5.074;2023-04-03T04:48:54;18.20;49.40
16074;DHT22;8141;52.664;5.074;2023-04-03T04:51:19;18.00;49.00
16074;DHT22;8141;52.664;5.074;2023-04-03T04:53:45;17.90;48.50
16074;DHT22;8141;52.664;5.074;2023-04-03T04:56:11;17.70;48.60
16074;DHT22;8141;52.664;5.074;2023-04-03T04:58:37;17.70;48.50
16074;DHT22;8141;52.664;5.074;2023-04-03T05:01:05;17.60;48.70
16074;DHT22;8141;52.664;5.074;2023-04-03T05:03:33;17.50;48.50
16074;DHT22;8141;52.664;5.074;2023-04-03T05:05:59;17.50;48.30
16074;DHT22;8141;52.664;5.074;2023-04-03T05:08:25;17.40;48.00
16074;DHT22;8141;52.664;5.074;2023-04-03T05:10:51;17.30;48.10
16074;DHT22;8141;52.664;5.074;2023-04-03T05:13:18;17.30;48.10
16074;DHT22;8141;52.664;5.074;2023-04-03T05:15:45;17.30;48.00
16074;DHT22;8141;52.664;5.074;2023-04-03T05:18:12;17.20;48.00
16074;DHT22;8141;52.664;5.074;2023-04-03T05:20:38;17.20;47.90
16074;DHT22;8141;52.664;5.074;2023-04-03T05:23:03;17.10;47.90
16074;DHT22;8141;52.664;5.074;2023-04-03T05:25:29;17.10;47.80
16074;DHT22;8141;52.664;5.074;2023-04-03T05:27:55;17.00;47.80
16074;DHT22;8141;52.664;5.074;2023-04-03T05:30:21;17.00;47.60
16074;DHT22;8141;52.664;5.074;2023-04-03T05:32:47;17.00;47.80
16074;DHT22;8141;52.664;5.074;2023-04-03T05:35:12;17.00;47.60
16074;DHT22;8141;52.664;5.074;2023-04-03T05:37:38;16.90;47.50
16074;DHT22;8141;52.664;5.074;2023-04-03T05:40:05;16.90;47.40
16074;DHT22;8141;52.664;5.074;2023-04-03T05:42:31;16.90;47.40
16074;DHT22;8141;52.664;5.074;2023-04-03T05:44:57;16.90;47.60
16074;DHT22;8141;52.664;5.074;2023-04-03T05:47:23;16.80;47.50
16074;DHT22;8141;52.664;5.074;2023-04-03T05:49:48;16.90;47.60
16074;DHT22;8141;52.664;5.074;2023-04-03T05:52:22;16.90;47.50
16074;DHT22;8141;52.664;5.074;2023-04-03T05:54:50;16.90;47.40
16074;DHT22;8141;52.664;5.074;2023-04-03T05:57:16;16.90;47.60
16074;DHT22;8141;52.664;5.074;2023-04-03T05:59:43;16.90;47.30
16074;DHT22;8141;52.664;5.074;2023-04-03T06:02:11;16.90;47.20
16074;DHT22;8141;52.664;5.074;2023-04-03T06:04:38;17.00;47.20
16074;DHT22;8141;52.664;5.074;2023-04-03T06:07:03;17.00;47.20
16074;DHT22;8141;52.664;5.074;2023-04-03T06:09:29;17.00;47.00
16074;DHT22;8141;52.664;5.074;2023-04-03T06:11:56;17.00;47.10
16074;DHT22;8141;52.664;5.074;2023-04-03T06:14:24;17.00;47.30
16074;DHT22;8141;52.664;5.074;2023-04-03T06:16:51;17.00;47.30
16074;DHT22;8141;52.664;5.074;2023-04-03T06:19:18;17.10;47.00
16074;DHT22;8141;52.664;5.074;2023-04-03T06:21:44;17.10;47.30
16074;DHT22;8141;52.664;5.074;2023-04-03T06:24:13;17.10;47.10
16074;DHT22;8141;52.664;5.074;2023-04-03T06:26:41;17.10;47.00
16074;DHT22;8141;52.664;5.074;2023-04-03T06:29:07;17.10;46.70
16074;DHT22;8141;52.664;5.074;2023-04-03T06:31:34;17.10;46.80
16074;DHT22;8141;52.664;5.074;2023-04-03T06:34:02;17.10;46.50
16074;DHT22;8141;52.664;5.074;2023-04-03T06:36:28;17.20;46.90
16074;DHT22;8141;52.664;5.074;2023-04-03T06:38:54;17.20;46.70
16074;DHT22;8141;52.664;5.074;2023-04-03T06:41:20;17.20;46.60
16074;DHT22;8141;52.664;5.074;2023-04-03T06:43:47;17.20;46.80
16074;DHT22;8141;52.664;5.074;2023-04-03T06:46:17;17.20;46.70
16074;DHT22;8141;52.664;5.074;2023-04-03T06:48:45;17.20;46.50
16074;DHT22;8141;52.664;5.074;2023-04-03T06:53:49;17.20;46.40
16074;DHT22;8141;52.664;5.074;2023-04-03T06:56:16;17.20;46.20
16074;DHT22;8141;52.664;5.074;2023-04-03T06:58:42;17.20;46.40
16074;DHT22;8141;52.664;5.074;2023-04-03T07:01:10;17.20;46.10
16074;DHT22;8141;52.664;5.074;2023-04-03T07:03:37;17.20;46.90
16074;DHT22;8141;52.664;5.074;2023-04-03T07:06:04;17.20;46.30
16074;DHT22;8141;52.664;5.074;2023-04-03T07:08:33;17.20;46.10
16074;DHT22;8141;52.664;5.074;2023-04-03T07:10:59;17.20;46.20
16074;DHT22;8141;52.664;5.074;2023-04-03T07:13:26;17.20;46.20
16074;DHT22;8141;52.664;5.074;2023-04-03T07:15:52;17.30;46.10
16074;DHT22;8141;52.664;5.074;2023-04-03T07:18:18;17.30;46.10
16074;DHT22;8141;52.664;5.074;2023-04-03T07:20:44;17.30;46.10
16074;DHT22;8141;52.664;5.074;2023-04-03T07:23:10;17.30;46.00
16074;DHT22;8141;52.664;5.074;2023-04-03T07:25:36;17.30;45.80
16074;DHT22;8141;52.664;5.074;2023-04-03T07:28:03;17.30;46.00
16074;DHT22;8141;52.664;5.074;2023-04-03T07:30:29;17.30;45.80
16074;DHT22;8141;52.664;5.074;2023-04-03T07:32:54;17.30;45.80
16074;DHT22;8141;52.664;5.074;2023-04-03T07:35:20;17.40;45.90
16074;DHT22;8141;52.664;5.074;2023-04-03T07:37:46;17.40;45.80
16074;DHT22;8141;52.664;5.074;2023-04-03T07:40:12;17.40;46.40
16074;DHT22;8141;52.664;5.074;2023-04-03T07:42:37;17.30;45.40
16074;DHT22;8141;52.664;5.074;2023-04-03T07:45:04;17.30;45.50
16074;DHT22;8141;52.664;5.074;2023-04-03T07:47:30;17.30;45.50
16074;DHT22;8141;52.664;5.074;2023-04-03T07:49:57;17.40;45.50
16074;DHT22;8141;52.664;5.074;2023-04-03T07:52:23;17.40;46.20
16074;DHT22;8141;52.664;5.074;2023-04-03T07:54:49;17.40;45.20
16074;DHT22;8141;52.664;5.074;2023-04-03T07:57:15;17.50;45.40
16074;DHT22;8141;52.664;5.074;2023-04-03T07:59:41;17.40;45.20
16074;DHT22;8141;52.664;5.074;2023-04-03T08:02:13;17.50;45.30
16074;DHT22;8141;52.664;5.074;2023-04-03T08:04:39;17.50;45.30
16074;DHT22;8141;52.664;5.074;2023-04-03T08:07:04;17.50;45.00
16074;DHT22;8141;52.664;5.074;2023-04-03T08:09:30;17.50;44.80
16074;DHT22;8141;52.664;5.074;2023-04-03T08:11:57;17.50;45.10
16074;DHT22;8141;52.664;5.074;2023-04-03T08:14:24;17.50;44.80
16074;DHT22;8141;52.664;5.074;2023-04-03T08:16:50;17.60;44.80
16074;DHT22;8141;52.664;5.074;2023-04-03T08:19:16;17.60;45.00
16074;DHT22;8141;52.664;5.074;2023-04-03T08:21:43;17.60;44.80
16074;DHT22;8141;52.664;5.074;2023-04-03T08:24:11;17.60;45.00
16074;DHT22;8141;52.664;5.074;2023-04-03T08:26:37;17.60;44.80
16074;DHT22;8141;52.664;5.074;2023-04-03T08:29:03;17.60;44.60
16074;DHT22;8141;52.664;5.074;2023-04-03T08:31:29;17.70;44.60
16074;DHT22;8141;52.664;5.074;2023-04-03T08:33:56;17.70;44.70
16074;DHT22;8141;52.664;5.074;2023-04-03T08:36:25;17.70;44.50
16074;DHT22;8141;52.664;5.074;2023-04-03T08:38:53;17.70;44.40
16074;DHT22;8141;52.664;5.074;2023-04-03T08:44:07;17.70;44.10
16074;DHT22;8141;52.664;5.074;2023-04-03T08:49:22;17.70;44.30
16074;DHT22;8141;52.664;5.074;2023-04-03T08:51:53;17.80;44.10
16074;DHT22;8141;52.664;5.074;2023-04-03T08:54:50;17.80;44.30
16074;DHT22;8141;52.664;5.074;2023-04-03T08:57:31;17.80;43.60
16074;DHT22;8141;52.664;5.074;2023-04-03T09:00:05;17.80;44.20
16074;DHT22;8141;52.664;5.074;2023-04-03T09:02:44;17.90;43.10
16074;DHT22;8141;52.664;5.074;2023-04-03T09:08:07;17.80;43.50
16074;DHT22;8141;52.664;5.074;2023-04-03T09:14:41;17.90;43.70
16074;DHT22;8141;52.664;5.074;2023-04-03T09:23:44;17.90;42.00
16074;DHT22;8141;52.664;5.074;2023-04-03T09:26:25;17.90;42.30
16074;DHT22;8141;52.664;5.074;2023-04-03T09:28:57;17.90;41.90
16074;DHT22;8141;52.664;5.074;2023-04-03T09:31:28;17.90;42.70
16074;DHT22;8141;52.664;5.074;2023-04-03T09:34:01;17.90;42.70
16074;DHT22;8141;52.664;5.074;2023-04-03T09:36:45;17.90;42.20
16074;DHT22;8141;52.664;5.074;2023-04-03T09:39:22;17.90;42.60
16074;DHT22;8141;52.664;5.074;2023-04-03T09:44:28;18.00;41.80
16074;DHT22;8141;52.664;5.074;2023-04-03T09:46:55;18.00;42.50
16074;DHT22;8141;52.664;5.074;2023-04-03T09:49:20;18.00;42.00
16074;DHT22;8141;52.664;5.074;2023-04-03T09:51:46;18.00;42.50
16074;DHT22;8141;52.664;5.074;2023-04-03T09:54:32;18.00;42.30
16074;DHT22;8141;52.664;5.074;2023-04-03T09:57:10;18.00;41.40
16074;DHT22;8141;52.664;5.074;2023-04-03T09:59:45;18.00;41.30
16074;DHT22;8141;52.664;5.074;2023-04-03T10:02:37;18.00;41.90
16074;DHT22;8141;52.664;5.074;2023-04-03T10:05:28;18.00;40.70
16074;DHT22;8141;52.664;5.074;2023-04-03T10:10:40;18.00;41.60
16074;DHT22;8141;52.664;5.074;2023-04-03T10:13:14;18.00;41.40
16074;DHT22;8141;52.664;5.074;2023-04-03T10:16:09;18.00;41.50
16074;DHT22;8141;52.664;5.074;2023-04-03T10:19:20;18.00;41.50
16074;DHT22;8141;52.664;5.074;2023-04-03T10:25:03;18.00;41.60
16074;DHT22;8141;52.664;5.074;2023-04-03T10:36:43;18.00;40.80
16074;DHT22;8141;52.664;5.074;2023-04-03T10:42:22;18.00;41.00
16074;DHT22;8141;52.664;5.074;2023-04-03T10:50:26;18.00;39.60
16074;DHT22;8141;52.664;5.074;2023-04-03T10:58:36;18.00;40.80
16074;DHT22;8141;52.664;5.074;2023-04-03T11:01:22;18.00;39.10
16074;DHT22;8141;52.664;5.074;2023-04-03T11:04:04;18.00;40.50
16074;DHT22;8141;52.664;5.074;2023-04-03T11:11:53;18.00;40.50
16074;DHT22;8141;52.664;5.074;2023-04-03T11:14:30;18.10;40.30
16074;DHT22;8141;52.664;5.074;2023-04-03T11:19:57;18.00;39.70
16074;DHT22;8141;52.664;5.074;2023-04-03T11:22:41;18.10;39.60
16074;DHT22;8141;52.664;5.074;2023-04-03T11:27:54;18.10;39.70
16074;DHT22;8141;52.664;5.074;2023-04-03T11:35:57;18.00;39.10
16074;DHT22;8141;52.664;5.074;2023-04-03T11:38:32;18.00;38.90
16074;DHT22;8141;52.664;5.074;2023-04-03T11:41:06;18.10;38.70
16074;DHT22;8141;52.664;5.074;2023-04-03T11:43:55;18.10;38.60
16074;DHT22;8141;52.664;5.074;2023-04-03T11:46:22;18.00;38.30
16074;DHT22;8141;52.664;5.074;2023-04-03T12:05:54;18.10;38.10
16074;DHT22;8141;52.664;5.074;2023-04-03T12:08:44;18.10;37.80
16074;DHT22;8141;52.664;5.074;2023-04-03T12:13:41;18.10;36.80
16074;DHT22;8141;52.664;5.074;2023-04-03T12:26:48;18.00;38.60
16074;DHT22;8141;52.664;5.074;2023-04-03T12:32:54;18.10;37.80
16074;DHT22;8141;52.664;5.074;2023-04-03T12:42:23;18.00;36.40
16074;DHT22;8141;52.664;5.074;2023-04-03T12:47:00;18.00;36.30
16074;DHT22;8141;52.664;5.074;2023-04-03T12:49:33;18.00;36.30
16074;DHT22;8141;52.664;5.074;2023-04-03T12:52:22;18.00;36.40
16074;DHT22;8141;52.664;5.074;2023-04-03T12:54:51;18.00;37.00
16074;DHT22;8141;52.664;5.074;2023-04-03T12:57:19;18.00;37.20
16074;DHT22;8141;52.664;5.074;2023-04-03T12:59:48;18.00;35.90
16074;DHT22;8141;52.664;5.074;2023-04-03T13:02:23;17.90;37.10
16074;DHT22;8141;52.664;5.074;2023-04-03T13:04:57;17.90;37.60
16074;DHT22;8141;52.664;5.074;2023-04-03T13:07:32;17.90;37.50
16074;DHT22;8141;52.664;5.074;2023-04-03T13:12:44;17.90;37.10
16074;DHT22;8141;52.664;5.074;2023-04-03T13:15:21;17.90;37.10
16074;DHT22;8141;52.664;5.074;2023-04-03T13:17:52;17.90;37.80
16074;DHT22;8141;52.664;5.074;2023-04-03T13:20:31;17.90;37.30
16074;DHT22;8141;52.664;5.074;2023-04-03T13:23:00;18.00;37.60
16074;DHT22;8141;52.664;5.074;2023-04-03T13:25:31;17.90;37.30
16074;DHT22;8141;52.664;5.074;2023-04-03T13:28:00;18.00;37.10
16074;DHT22;8141;52.664;5.074;2023-04-03T13:30:29;18.00;36.70
16074;DHT22;8141;52.664;5.074;2023-04-03T13:32:59;17.90;37.30
16074;DHT22;8141;52.664;5.074;2023-04-03T13:35:39;17.90;37.20
16074;DHT22;8141;52.664;5.074;2023-04-03T13:38:27;17.90;37.50
16074;DHT22;8141;52.664;5.074;2023-04-03T13:41:02;17.90;36.80
16074;DHT22;8141;52.664;5.074;2023-04-03T13:43:34;17.90;37.70
16074;DHT22;8141;52.664;5.074;2023-04-03T13:48:41;17.90;37.30
16074;DHT22;8141;52.664;5.074;2023-04-03T13:56:26;17.90;37.90
16074;DHT22;8141;52.664;5.074;2023-04-03T14:04:31;17.90;37.80
16074;DHT22;8141;52.664;5.074;2023-04-03T14:07:09;17.90;37.60
16074;DHT22;8141;52.664;5.074;2023-04-03T14:09:37;17.90;38.30
16074;DHT22;8141;52.664;5.074;2023-04-03T14:12:07;17.90;38.20
16074;DHT22;8141;52.664;5.074;2023-04-03T14:14:37;17.90;37.40
16074;DHT22;8141;52.664;5.074;2023-04-03T14:17:13;17.90;37.90
16074;DHT22;8141;52.664;5.074;2023-04-03T14:19:46;17.90;37.10
16074;DHT22;8141;52.664;5.074;2023-04-03T14:22:20;18.00;36.90
16074;DHT22;8141;52.664;5.074;2023-04-03T14:24:48;18.00;37.10
16074;DHT22;8141;52.664;5.074;2023-04-03T14:27:25;18.00;36.90
16074;DHT22;8141;52.664;5.074;2023-04-03T14:29:55;18.00;36.80
16074;DHT22;8141;52.664;5.074;2023-04-03T14:32:23;18.00;37.00
16074;DHT22;8141;52.664;5.074;2023-04-03T14:34:50;18.00;36.80
16074;DHT22;8141;52.664;5.074;2023-04-03T14:37:23;18.00;37.20
16074;DHT22;8141;52.664;5.074;2023-04-03T14:39:52;17.90;36.30
16074;DHT22;8141;52.664;5.074;2023-04-03T14:42:22;17.90;37.10
16074;DHT22;8141;52.664;5.074;2023-04-03T14:44:50;18.00;37.20
16074;DHT22;8141;52.664;5.074;2023-04-03T14:47:20;18.00;37.00
16074;DHT22;8141;52.664;5.074;2023-04-03T14:49:48;18.00;36.70
16074;DHT22;8141;52.664;5.074;2023-04-03T14:52:22;18.00;36.60
16074;DHT22;8141;52.664;5.074;2023-04-03T14:54:50;17.90;37.20
16074;DHT22;8141;52.664;5.074;2023-04-03T14:57:17;18.00;36.90
16074;DHT22;8141;52.664;5.074;2023-04-03T14:59:44;18.00;36.80
16074;DHT22;8141;52.664;5.074;2023-04-03T15:04:52;17.90;36.90
16074;DHT22;8141;52.664;5.074;2023-04-03T15:07:18;17.90;37.00
16074;DHT22;8141;52.664;5.074;2023-04-03T15:09:43;17.80;36.90
16074;DHT22;8141;52.664;5.074;2023-04-03T15:12:09;17.90;37.30
16074;DHT22;8141;52.664;5.074;2023-04-03T15:14:35;17.90;36.40
16074;DHT22;8141;52.664;5.074;2023-04-03T15:17:01;17.80;36.10
16074;DHT22;8141;52.664;5.074;2023-04-03T15:19:30;17.80;36.20
16074;DHT22;8141;52.664;5.074;2023-04-03T15:21:58;17.90;36.10
16074;DHT22;8141;52.664;5.074;2023-04-03T15:24:23;17.90;36.70
16074;DHT22;8141;52.664;5.074;2023-04-03T15:26:49;17.90;37.00
16074;DHT22;8141;52.664;5.074;2023-04-03T15:29:15;17.90;36.40
16074;DHT22;8141;52.664;5.074;2023-04-03T15:31:40;17.90;36.30
16074;DHT22;8141;52.664;5.074;2023-04-03T15:34:06;17.90;36.70
16074;DHT22;8141;52.664;5.074;2023-04-03T15:36:32;17.90;36.80
16074;DHT22;8141;52.664;5.074;2023-04-03T15:38:58;17.90;36.90
16074;DHT22;8141;52.664;5.074;2023-04-03T15:41:24;17.90;36.80
16074;DHT22;8141;52.664;5.074;2023-04-03T15:43:49;17.90;35.80
16074;DHT22;8141;52.664;5.074;2023-04-03T15:46:15;17.90;36.20
16074;DHT22;8141;52.664;5.074;2023-04-03T15:48:41;17.90;36.70
16074;DHT22;8141;52.664;5.074;2023-04-03T15:51:06;17.90;36.60
16074;DHT22;8141;52.664;5.074;2023-04-03T15:53:32;17.90;37.20
16074;DHT22;8141;52.664;5.074;2023-04-03T15:55:58;17.80;37.50
16074;DHT22;8141;52.664;5.074;2023-04-03T15:58:24;17.80;37.80
16074;DHT22;8141;52.664;5.074;2023-04-03T16:00:51;17.80;36.90
16074;DHT22;8141;52.664;5.074;2023-04-03T16:03:19;17.80;37.00
16074;DHT22;8141;52.664;5.074;2023-04-03T16:05:46;17.80;36.70
16074;DHT22;8141;52.664;5.074;2023-04-03T16:08:12;17.70;36.80
16074;DHT22;8141;52.664;5.074;2023-04-03T16:10:39;17.80;37.40
16074;DHT22;8141;52.664;5.074;2023-04-03T16:13:06;17.80;36.90
16074;DHT22;8141;52.664;5.074;2023-04-03T16:15:33;17.80;37.50
16074;DHT22;8141;52.664;5.074;2023-04-03T16:18:00;17.80;37.00
16074;DHT22;8141;52.664;5.074;2023-04-03T16:20:25;17.70;37.60
16074;DHT22;8141;52.664;5.074;2023-04-03T16:22:51;17.70;37.10
16074;DHT22;8141;52.664;5.074;2023-04-03T16:25:17;17.70;37.60
16074;DHT22;8141;52.664;5.074;2023-04-03T16:27:43;17.70;37.70
16074;DHT22;8141;52.664;5.074;2023-04-03T16:30:09;17.70;37.00
16074;DHT22;8141;52.664;5.074;2023-04-03T16:32:36;17.70;37.00
16074;DHT22;8141;52.664;5.074;2023-04-03T16:35:03;17.70;37.30
16074;DHT22;8141;52.664;5.074;2023-04-03T16:37:29;17.70;37.60
16074;DHT22;8141;52.664;5.074;2023-04-03T16:39:55;17.70;37.00
16074;DHT22;8141;52.664;5.074;2023-04-03T16:42:22;17.70;38.20
16074;DHT22;8141;52.664;5.074;2023-04-03T16:44:47;17.80;37.00
16074;DHT22;8141;52.664;5.074;2023-04-03T16:47:13;17.70;37.20
16074;DHT22;8141;52.664;5.074;2023-04-03T16:49:39;17.80;37.10
16074;DHT22;8141;52.664;5.074;2023-04-03T16:52:05;17.70;37.00
16074;DHT22;8141;52.664;5.074;2023-04-03T16:54:32;17.70;37.70
16074;DHT22;8141;52.664;5.074;2023-04-03T16:56:58;17.80;38.20
16074;DHT22;8141;52.664;5.074;2023-04-03T16:59:23;17.80;37.40
16074;DHT22;8141;52.664;5.074;2023-04-03T17:01:49;17.80;36.50
16074;DHT22;8141;52.664;5.074;2023-04-03T17:04:15;17.70;37.50
16074;DHT22;8141;52.664;5.074;2023-04-03T17:06:41;17.70;37.10
16074;DHT22;8141;52.664;5.074;2023-04-03T17:09:07;17.70;37.00
16074;DHT22;8141;52.664;5.074;2023-04-03T17:11:34;17.70;37.70
16074;DHT22;8141;52.664;5.074;2023-04-03T17:14:01;17.70;38.20
16074;DHT22;8141;52.664;5.074;2023-04-03T17:16:28;17.70;37.50
16074;DHT22;8141;52.664;5.074;2023-04-03T17:18:55;17.70;37.60
16074;DHT22;8141;52.664;5.074;2023-04-03T17:21:21;17.70;38.50
16074;DHT22;8141;52.664;5.074;2023-04-03T17:23:50;17.70;37.00
16074;DHT22;8141;52.664;5.074;2023-04-03T17:26:18;17.70;37.90
16074;DHT22;8141;52.664;5.074;2023-04-03T17:28:43;17.70;38.10
16074;DHT22;8141;52.664;5.074;2023-04-03T17:31:09;17.70;37.80
16074;DHT22;8141;52.664;5.074;2023-04-03T17:33:35;17.70;37.40
16074;DHT22;8141;52.664;5.074;2023-04-03T17:36:02;17.70;37.00
16074;DHT22;8141;52.664;5.074;2023-04-03T17:38:30;17.70;37.80
16074;DHT22;8141;52.664;5.074;2023-04-03T17:40:58;17.60;37.50
16074;DHT22;8141;52.664;5.074;2023-04-03T17:43:29;17.60;37.50
16074;DHT22;8141;52.664;5.074;2023-04-03T17:45:59;17.60;37.30
16074;DHT22;8141;52.664;5.074;2023-04-03T17:48:31;17.60;37.90
16074;DHT22;8141;52.664;5.074;2023-04-03T17:50:57;17.60;38.30
16074;DHT22;8141;52.664;5.074;2023-04-03T17:53:23;17.70;38.70
16074;DHT22;8141;52.664;5.074;2023-04-03T17:55:51;17.70;38.70
16074;DHT22;8141;52.664;5.074;2023-04-03T17:58:17;17.80;39.00
16074;DHT22;8141;52.664;5.074;2023-04-03T18:00:43;17.80;39.20
16074;DHT22;8141;52.664;5.074;2023-04-03T18:03:09;17.80;39.10
16074;DHT22;8141;52.664;5.074;2023-04-03T18:05:34;17.80;39.10
16074;DHT22;8141;52.664;5.074;2023-04-03T18:08:01;17.90;39.30
16074;DHT22;8141;52.664;5.074;2023-04-03T18:10:27;17.90;39.40